sensor_id;sensor_type;location;lat;lon;timestamp;temperature;humidity
48264;DHT22;34086;51.076;13.722;2023-04-03T00:00:44;3.80;99.90
48264;DHT22;34086;51.076;13.722;2023-04-03T00:01:44;3.80;99.90
48264;DHT22;34086;51.076;13.722;2023-04-03T00:02:45;3.80;99.90
48264;DHT22;34086;51.076;13.722;2023-04-03T00:03:45;3.80;99.90
48264;DHT22;34086;51.076;13.722;2023-04-03T00:04:47;3.80;99.90
48264;DHT22;34086;51.076;13.722;2023-04-03T00:05:48;3.80;99.90
48264;DHT22;34086;51.076;13.722;2023-04-03T00:06:49;3.80;99.90
48264;DHT22;34086;51.076;13.722;2023-04-03T00:07:49;3.80;99.90
48264;DHT22;34086;51.076;13.722;2023-04-03T00:08:50;3.70;99.90
48264;DHT22;34086;51.076;13.722;2023-04-03T00:09:51;3.80;99.90
48264;DHT22;34086;51.076;13.722;2023-04-03T00:10:51;3.70;99.90
48264;DHT22;34086;51.076;13.722;2023-04-03T00:11:52;3.80;99.90
48264;DHT22;34086;51.076;13.722;2023-04-03T00:12:53;3.70;99.90
48264;DHT22;34086;51.076;13.722;2023-04-03T00:13:53;3.70;99.90
48264;DHT22;34086;51.076;13.722;2023-04-03T00:14:54;3.70;99.90
48264;DHT22;34086;51.076;13.722;2023-04-03T00:15:55;3.60;99.90
48264;DHT22;34086;51.076;13.722;2023-04-03T00:16:55;3.60;99.90
48264;DHT22;34086;51.076;13.722;2023-04-03T00:17:56;3.70;99.90
48264;DHT22;34086;51.076;13.722;2023-04-03T00:18:57;3.60;99.90
48264;DHT22;34086;51.076;13.722;2023-04-03T00:19:57;3.60;99.90
48264;DHT22;34086;51.076;13.722;2023-04-03T00:20:58;3.60;99.90
48264;DHT22;34086;51.076;13.722;2023-04-03T00:21:59;3.60;99.90
48264;DHT22;34086;51.076;13.722;2023-04-03T00:23:00;3.60;99.90
48264;DHT22;34086;51.076;13.722;2023-04-03T00:24:01;3.60;99.90
48264;DHT22;34086;51.076;13.722;2023-04-03T00:25:01;3.50;99.90
48264;DHT22;34086;51.076;13.722;2023-04-03T00:26:02;3.50;99.90
48264;DHT22;34086;51.076;13.722;2023-04-03T00:27:02;3.50;99.90
48264;DHT22;34086;51.076;13.722;2023-04-03T00:28:04;3.50;99.90
48264;DHT22;34086;51.076;13.722;2023-04-03T00:29:04;3.50;99.90
48264;DHT22;34086;51.076;13.722;2023-04-03T00:30:06;3.50;99.90
48264;DHT22;34086;51.076;13.722;2023-04-03T00:31:07;3.50;99.90
48264;DHT22;34086;51.076;13.722;2023-04-03T00:32:08;3.50;99.90
48264;DHT22;34086;51.076;13.722;2023-04-03T00:33:11;3.40;99.90
48264;DHT22;34086;51.076;13.722;2023-04-03T00:34:12;3.40;99.90
48264;DHT22;34086;51.076;13.722;2023-04-03T00:35:13;3.40;99.90
48264;DHT22;34086;51.076;13.722;2023-04-03T00:36:16;3.40;99.90
48264;DHT22;34086;51.076;13.722;2023-04-03T00:37:16;3.50;99.90
48264;DHT22;34086;51.076;13.722;2023-04-03T00:38:17;3.50;99.90
48264;DHT22;34086;51.076;13.722;2023-04-03T00:39:18;3.40;99.90
48264;DHT22;34086;51.076;13.722;2023-04-03T00:40:19;3.40;99.90
48264;DHT22;34086;51.076;13.722;2023-04-03T00:41:20;3.40;99.90
48264;DHT22;34086;51.076;13.722;2023-04-03T00:42:21;3.40;99.90
48264;DHT22;34086;51.076;13.722;2023-04-03T00:43:24;3.40;99.90
48264;DHT22;34086;51.076;13.722;2023-04-03T00:45:36;3.30;99.90
48264;DHT22;34086;51.076;13.722;2023-04-03T00:46:37;3.30;99.90
48264;DHT22;34086;51.076;13.722;2023-04-03T00:47:39;3.30;99.90
48264;DHT22;34086;51.076;13.722;2023-04-03T00:48:43;3.30;99.90
48264;DHT22;34086;51.076;13.722;2023-04-03T00:49:45;3.30;99.90
48264;DHT22;34086;51.076;13.722;2023-04-03T00:50:46;3.30;99.90
48264;DHT22;34086;51.076;13.722;2023-04-03T00:51:48;3.30;99.90
48264;DHT22;34086;51.076;13.722;2023-04-03T00:52:49;3.30;99.90
48264;DHT22;34086;51.076;13.722;2023-04-03T00:53:57;3.40;99.90
48264;DHT22;34086;51.076;13.722;2023-04-03T00:55:04;3.30;99.90
48264;DHT22;34086;51.076;13.722;2023-04-03T00:56:09;3.30;99.90
48264;DHT22;34086;51.076;13.722;2023-04-03T00:57:11;3.30;99.90
48264;DHT22;34086;51.076;13.722;2023-04-03T00:58:12;3.30;99.90
48264;DHT22;34086;51.076;13.722;2023-04-03T00:59:16;3.30;99.90
48264;DHT22;34086;51.076;13.722;2023-04-03T01:00:19;3.30;99.90
48264;DHT22;34086;51.076;13.722;2023-04-03T01:01:23;3.30;99.90
48264;DHT22;34086;51.076;13.722;2023-04-03T01:02:25;3.30;99.90
48264;DHT22;34086;51.076;13.722;2023-04-03T01:03:26;3.30;99.90
48264;DHT22;34086;51.076;13.722;2023-04-03T01:04:36;3.30;99.90
48264;DHT22;34086;51.076;13.722;2023-04-03T01:05:38;3.30;99.90
48264;DHT22;34086;51.076;13.722;2023-04-03T01:06:38;3.20;99.90
48264;DHT22;34086;51.076;13.722;2023-04-03T01:07:41;3.30;99.90
48264;DHT22;34086;51.076;13.722;2023-04-03T01:08:43;3.20;99.90
48264;DHT22;34086;51.076;13.722;2023-04-03T01:09:45;3.20;99.90
48264;DHT22;34086;51.076;13.722;2023-04-03T01:10:47;3.20;99.90
48264;DHT22;34086;51.076;13.722;2023-04-03T01:11:48;3.20;99.90
48264;DHT22;34086;51.076;13.722;2023-04-03T01:12:50;3.20;99.90
48264;DHT22;34086;51.076;13.722;2023-04-03T01:13:51;3.20;99.90
48264;DHT22;34086;51.076;13.722;2023-04-03T01:14:57;3.20;99.90
48264;DHT22;34086;51.076;13.722;2023-04-03T01:16:01;3.10;99.90
48264;DHT22;34086;51.076;13.722;2023-04-03T01:17:20;3.10;99.90
48264;DHT22;34086;51.076;13.722;2023-04-03T01:18:24;3.10;99.90
48264;DHT22;34086;51.076;13.722;2023-04-03T01:19:25;3.10;99.90
48264;DHT22;34086;51.076;13.722;2023-04-03T01:20:42;3.10;99.90
48264;DHT22;34086;51.076;13.722;2023-04-03T01:22:11;3.10;99.90
48264;DHT22;34086;51.076;13.722;2023-04-03T01:23:25;3.10;99.90
48264;DHT22;34086;51.076;13.722;2023-04-03T01:24:36;3.10;99.90
48264;DHT22;34086;51.076;13.722;2023-04-03T01:25:49;3.10;99.90
48264;DHT22;34086;51.076;13.722;2023-04-03T01:26:50;3.10;99.90
48264;DHT22;34086;51.076;13.722;2023-04-03T01:27:51;3.00;99.90
48264;DHT22;34086;51.076;13.722;2023-04-03T01:28:54;3.00;99.90
48264;DHT22;34086;51.076;13.722;2023-04-03T01:29:55;3.00;99.90
48264;DHT22;34086;51.076;13.722;2023-04-03T01:31:08;3.00;99.90
48264;DHT22;34086;51.076;13.722;2023-04-03T01:32:11;3.00;99.90
48264;DHT22;34086;51.076;13.722;2023-04-03T01:33:11;3.00;99.90
48264;DHT22;34086;51.076;13.722;2023-04-03T01:34:12;3.00;99.90
48264;DHT22;34086;51.076;13.722;2023-04-03T01:35:13;3.00;99.90
48264;DHT22;34086;51.076;13.722;2023-04-03T01:36:17;3.00;99.90
48264;DHT22;34086;51.076;13.722;2023-04-03T01:37:18;3.00;99.90
48264;DHT22;34086;51.076;13.722;2023-04-03T01:38:19;2.90;99.90
48264;DHT22;34086;51.076;13.722;2023-04-03T01:39:21;2.90;99.90
48264;DHT22;34086;51.076;13.722;2023-04-03T01:40:22;2.90;99.90
48264;DHT22;34086;51.076;13.722;2023-04-03T01:41:22;2.90;99.90
48264;DHT22;34086;51.076;13.722;2023-04-03T01:42:25;2.90;99.90
48264;DHT22;34086;51.076;13.722;2023-04-03T01:43:26;2.90;99.90
48264;DHT22;34086;51.076;13.722;2023-04-03T01:44:27;2.90;99.90
48264;DHT22;34086;51.076;13.722;2023-04-03T01:45:27;2.90;99.90
48264;DHT22;34086;51.076;13.722;2023-04-03T01:46:28;2.90;99.90
48264;DHT22;34086;51.076;13.722;2023-04-03T01:47:29;2.90;99.90
48264;DHT22;34086;51.076;13.722;2023-04-03T01:48:30;2.90;99.90
48264;DHT22;34086;51.076;13.722;2023-04-03T01:49:31;2.80;99.90
48264;DHT22;34086;51.076;13.722;2023-04-03T01:50:31;2.80;99.90
48264;DHT22;34086;51.076;13.722;2023-04-03T01:51:32;2.80;99.90
48264;DHT22;34086;51.076;13.722;2023-04-03T01:52:33;2.80;99.90
48264;DHT22;34086;51.076;13.722;2023-04-03T01:53:34;2.80;99.90
48264;DHT22;34086;51.076;13.722;2023-04-03T01:54:34;2.70;99.90
48264;DHT22;34086;51.076;13.722;2023-04-03T01:55:35;2.70;99.90
48264;DHT22;34086;51.076;13.722;2023-04-03T01:56:36;2.70;99.90
48264;DHT22;34086;51.076;13.722;2023-04-03T01:57:36;2.70;99.90
48264;DHT22;34086;51.076;13.722;2023-04-03T01:58:37;2.70;99.90
48264;DHT22;34086;51.076;13.722;2023-04-03T01:59:38;2.70;99.90
48264;DHT22;34086;51.076;13.722;2023-04-03T02:00:39;2.70;99.90
48264;DHT22;34086;51.076;13.722;2023-04-03T02:01:39;2.70;99.90
48264;DHT22;34086;51.076;13.722;2023-04-03T02:02:40;2.70;99.90
48264;DHT22;34086;51.076;13.722;2023-04-03T02:03:41;2.70;99.90
48264;DHT22;34086;51.076;13.722;2023-04-03T02:04:42;2.70;99.90
48264;DHT22;34086;51.076;13.722;2023-04-03T02:05:42;2.70;99.90
48264;DHT22;34086;51.076;13.722;2023-04-03T02:06:44;2.60;99.90
48264;DHT22;34086;51.076;13.722;2023-04-03T02:07:45;2.60;99.90
48264;DHT22;34086;51.076;13.722;2023-04-03T02:08:46;2.60;99.90
48264;DHT22;34086;51.076;13.722;2023-04-03T02:09:46;2.60;99.90
48264;DHT22;34086;51.076;13.722;2023-04-03T02:10:48;2.60;99.90
48264;DHT22;34086;51.076;13.722;2023-04-03T02:11:49;2.60;99.90
48264;DHT22;34086;51.076;13.722;2023-04-03T02:12:50;2.60;99.90
48264;DHT22;34086;51.076;13.722;2023-04-03T02:13:51;2.50;99.90
48264;DHT22;34086;51.076;13.722;2023-04-03T02:14:51;2.50;99.90
48264;DHT22;34086;51.076;13.722;2023-04-03T02:15:52;2.50;99.90
48264;DHT22;34086;51.076;13.722;2023-04-03T02:16:53;2.40;99.90
48264;DHT22;34086;51.076;13.722;2023-04-03T02:17:56;2.40;99.90
48264;DHT22;34086;51.076;13.722;2023-04-03T02:18:57;2.40;99.90
48264;DHT22;34086;51.076;13.722;2023-04-03T02:19:58;2.40;99.90
48264;DHT22;34086;51.076;13.722;2023-04-03T02:20:58;2.40;99.90
48264;DHT22;34086;51.076;13.722;2023-04-03T02:22:01;2.40;99.90
48264;DHT22;34086;51.076;13.722;2023-04-03T02:23:02;2.30;99.90
48264;DHT22;34086;51.076;13.722;2023-04-03T02:24:03;2.30;99.90
48264;DHT22;34086;51.076;13.722;2023-04-03T02:25:04;2.30;99.90
48264;DHT22;34086;51.076;13.722;2023-04-03T02:26:07;2.40;99.90
48264;DHT22;34086;51.076;13.722;2023-04-03T02:27:08;2.40;99.90
48264;DHT22;34086;51.076;13.722;2023-04-03T02:28:09;2.40;99.90
48264;DHT22;34086;51.076;13.722;2023-04-03T02:29:15;2.40;99.90
48264;DHT22;34086;51.076;13.722;2023-04-03T02:30:18;2.30;99.90
48264;DHT22;34086;51.076;13.722;2023-04-03T02:31:19;2.40;99.90
48264;DHT22;34086;51.076;13.722;2023-04-03T02:32:23;2.40;99.90
48264;DHT22;34086;51.076;13.722;2023-04-03T02:33:24;2.30;99.90
48264;DHT22;34086;51.076;13.722;2023-04-03T02:34:25;2.30;99.90
48264;DHT22;34086;51.076;13.722;2023-04-03T02:35:27;2.30;99.90
48264;DHT22;34086;51.076;13.722;2023-04-03T02:36:32;2.30;99.90
48264;DHT22;34086;51.076;13.722;2023-04-03T02:37:35;2.30;99.90
48264;DHT22;34086;51.076;13.722;2023-04-03T02:38:36;2.30;99.90
48264;DHT22;34086;51.076;13.722;2023-04-03T02:39:37;2.30;99.90
48264;DHT22;34086;51.076;13.722;2023-04-03T02:40:37;2.30;99.90
48264;DHT22;34086;51.076;13.722;2023-04-03T02:41:38;2.20;99.90
48264;DHT22;34086;51.076;13.722;2023-04-03T02:42:45;2.20;99.90
48264;DHT22;34086;51.076;13.722;2023-04-03T02:43:45;2.10;99.90
48264;DHT22;34086;51.076;13.722;2023-04-03T02:44:46;2.00;99.90
48264;DHT22;34086;51.076;13.722;2023-04-03T02:45:46;2.00;99.90
48264;DHT22;34086;51.076;13.722;2023-04-03T02:46:47;2.00;99.90
48264;DHT22;34086;51.076;13.722;2023-04-03T02:47:48;1.90;99.90
48264;DHT22;34086;51.076;13.722;2023-04-03T02:48:48;2.00;99.90
48264;DHT22;34086;51.076;13.722;2023-04-03T02:49:49;2.00;99.90
48264;DHT22;34086;51.076;13.722;2023-04-03T02:50:50;2.00;99.90
48264;DHT22;34086;51.076;13.722;2023-04-03T02:51:50;1.90;99.90
48264;DHT22;34086;51.076;13.722;2023-04-03T02:52:51;1.90;99.90
48264;DHT22;34086;51.076;13.722;2023-04-03T02:53:52;1.90;99.90
48264;DHT22;34086;51.076;13.722;2023-04-03T02:54:56;1.90;99.90
48264;DHT22;34086;51.076;13.722;2023-04-03T02:55:57;1.80;99.90
48264;DHT22;34086;51.076;13.722;2023-04-03T02:56:57;1.80;99.90
48264;DHT22;34086;51.076;13.722;2023-04-03T02:57:58;1.70;99.90
48264;DHT22;34086;51.076;13.722;2023-04-03T02:58:59;1.70;99.90
48264;DHT22;34086;51.076;13.722;2023-04-03T02:59:59;1.70;99.90
48264;DHT22;34086;51.076;13.722;2023-04-03T03:01:00;1.70;99.90
48264;DHT22;34086;51.076;13.722;2023-04-03T03:02:01;1.70;99.90
48264;DHT22;34086;51.076;13.722;2023-04-03T03:03:02;1.70;99.90
48264;DHT22;34086;51.076;13.722;2023-04-03T03:04:03;1.70;99.90
48264;DHT22;34086;51.076;13.722;2023-04-03T03:05:04;1.60;99.90
48264;DHT22;34086;51.076;13.722;2023-04-03T03:06:07;1.60;99.90
48264;DHT22;34086;51.076;13.722;2023-04-03T03:07:08;1.50;99.90
48264;DHT22;34086;51.076;13.722;2023-04-03T03:08:08;1.50;99.90
48264;DHT22;34086;51.076;13.722;2023-04-03T03:09:12;1.50;99.90
48264;DHT22;34086;51.076;13.722;2023-04-03T03:10:13;1.50;99.90
48264;DHT22;34086;51.076;13.722;2023-04-03T03:11:14;1.40;99.90
48264;DHT22;34086;51.076;13.722;2023-04-03T03:12:15;1.40;99.90
48264;DHT22;34086;51.076;13.722;2023-04-03T03:13:16;1.40;99.90
48264;DHT22;34086;51.076;13.722;2023-04-03T03:14:16;1.40;99.90
48264;DHT22;34086;51.076;13.722;2023-04-03T03:15:17;1.40;99.90
48264;DHT22;34086;51.076;13.722;2023-04-03T03:16:19;1.40;99.90
48264;DHT22;34086;51.076;13.722;2023-04-03T03:17:20;1.40;99.90
48264;DHT22;34086;51.076;13.722;2023-04-03T03:18:21;1.40;99.90
48264;DHT22;34086;51.076;13.722;2023-04-03T03:19:23;1.30;99.90
48264;DHT22;34086;51.076;13.722;2023-04-03T03:20:24;1.30;99.90
48264;DHT22;34086;51.076;13.722;2023-04-03T03:21:25;1.40;99.90
48264;DHT22;34086;51.076;13.722;2023-04-03T03:22:26;1.30;99.90
48264;DHT22;34086;51.076;13.722;2023-04-03T03:23:28;1.30;99.90
48264;DHT22;34086;51.076;13.722;2023-04-03T03:24:29;1.30;99.90
48264;DHT22;34086;51.076;13.722;2023-04-03T03:25:30;1.30;99.90
48264;DHT22;34086;51.076;13.722;2023-04-03T03:26:31;1.30;99.90
48264;DHT22;34086;51.076;13.722;2023-04-03T03:27:31;1.30;99.90
48264;DHT22;34086;51.076;13.722;2023-04-03T03:28:33;1.30;99.90
48264;DHT22;34086;51.076;13.722;2023-04-03T03:29:33;1.30;99.90
48264;DHT22;34086;51.076;13.722;2023-04-03T03:30:34;1.30;99.90
48264;DHT22;34086;51.076;13.722;2023-04-03T03:31:35;1.30;99.90
48264;DHT22;34086;51.076;13.722;2023-04-03T03:32:36;1.30;99.90
48264;DHT22;34086;51.076;13.722;2023-04-03T03:33:36;1.30;99.90
48264;DHT22;34086;51.076;13.722;2023-04-03T03:34:37;1.30;99.90
48264;DHT22;34086;51.076;13.722;2023-04-03T03:35:37;1.20;99.90
48264;DHT22;34086;51.076;13.722;2023-04-03T03:36:38;1.10;99.90
48264;DHT22;34086;51.076;13.722;2023-04-03T03:37:39;1.10;99.90
48264;DHT22;34086;51.076;13.722;2023-04-03T03:38:40;1.10;99.90
48264;DHT22;34086;51.076;13.722;2023-04-03T03:39:40;1.10;99.90
48264;DHT22;34086;51.076;13.722;2023-04-03T03:40:41;1.00;99.90
48264;DHT22;34086;51.076;13.722;2023-04-03T03:41:42;1.00;99.90
48264;DHT22;34086;51.076;13.722;2023-04-03T03:42:43;1.10;99.90
48264;DHT22;34086;51.076;13.722;2023-04-03T03:43:43;1.10;99.90
48264;DHT22;34086;51.076;13.722;2023-04-03T03:44:44;1.00;99.90
48264;DHT22;34086;51.076;13.722;2023-04-03T03:45:49;1.00;99.90
48264;DHT22;34086;51.076;13.722;2023-04-03T03:46:51;1.00;99.90
48264;DHT22;34086;51.076;13.722;2023-04-03T03:47:52;1.00;99.90
48264;DHT22;34086;51.076;13.722;2023-04-03T03:48:53;1.00;99.90
48264;DHT22;34086;51.076;13.722;2023-04-03T03:49:53;1.00;99.90
48264;DHT22;34086;51.076;13.722;2023-04-03T03:50:54;0.90;99.90
48264;DHT22;34086;51.076;13.722;2023-04-03T03:51:59;0.90;99.90
48264;DHT22;34086;51.076;13.722;2023-04-03T03:52:59;0.90;99.90
48264;DHT22;34086;51.076;13.722;2023-04-03T03:54:00;0.90;99.90
48264;DHT22;34086;51.076;13.722;2023-04-03T03:55:01;0.90;99.90
48264;DHT22;34086;51.076;13.722;2023-04-03T03:56:02;0.90;99.90
48264;DHT22;34086;51.076;13.722;2023-04-03T03:57:04;0.80;99.90
48264;DHT22;34086;51.076;13.722;2023-04-03T03:58:05;0.80;99.90
48264;DHT22;34086;51.076;13.722;2023-04-03T03:59:07;0.80;99.90
48264;DHT22;34086;51.076;13.722;2023-04-03T04:00:09;0.80;99.90
48264;DHT22;34086;51.076;13.722;2023-04-03T04:01:15;0.70;99.90
48264;DHT22;34086;51.076;13.722;2023-04-03T04:02:21;0.70;99.90
48264;DHT22;34086;51.076;13.722;2023-04-03T04:03:21;0.70;99.90
48264;DHT22;34086;51.076;13.722;2023-04-03T04:04:23;0.70;99.90
48264;DHT22;34086;51.076;13.722;2023-04-03T04:05:24;0.70;99.90
48264;DHT22;34086;51.076;13.722;2023-04-03T04:06:26;0.70;99.90
48264;DHT22;34086;51.076;13.722;2023-04-03T04:07:31;0.70;99.90
48264;DHT22;34086;51.076;13.722;2023-04-03T04:08:32;0.70;99.90
48264;DHT22;34086;51.076;13.722;2023-04-03T04:09:32;0.70;99.90
48264;DHT22;34086;51.076;13.722;2023-04-03T04:10:34;0.70;99.90
48264;DHT22;34086;51.076;13.722;2023-04-03T04:11:35;0.70;99.90
48264;DHT22;34086;51.076;13.722;2023-04-03T04:12:37;0.70;99.90
48264;DHT22;34086;51.076;13.722;2023-04-03T04:13:38;0.70;99.90
48264;DHT22;34086;51.076;13.722;2023-04-03T04:14:39;0.70;99.90
48264;DHT22;34086;51.076;13.722;2023-04-03T04:15:43;0.70;99.90
48264;DHT22;34086;51.076;13.722;2023-04-03T04:16:44;0.70;99.90
48264;DHT22;34086;51.076;13.722;2023-04-03T04:17:49;0.70;99.90
48264;DHT22;34086;51.076;13.722;2023-04-03T04:18:50;0.70;99.90
48264;DHT22;34086;51.076;13.722;2023-04-03T04:19:51;0.70;99.90
48264;DHT22;34086;51.076;13.722;2023-04-03T04:20:51;0.60;99.90
48264;DHT22;34086;51.076;13.722;2023-04-03T04:21:52;0.60;99.90
48264;DHT22;34086;51.076;13.722;2023-04-03T04:22:53;0.60;99.90
48264;DHT22;34086;51.076;13.722;2023-04-03T04:23:55;0.60;99.90
48264;DHT22;34086;51.076;13.722;2023-04-03T04:24:56;0.60;99.90
48264;DHT22;34086;51.076;13.722;2023-04-03T04:25:57;0.60;99.90
48264;DHT22;34086;51.076;13.722;2023-04-03T04:26:58;0.60;99.90
48264;DHT22;34086;51.076;13.722;2023-04-03T04:27:59;0.60;99.90
48264;DHT22;34086;51.076;13.722;2023-04-03T04:29:00;0.60;99.90
48264;DHT22;34086;51.076;13.722;2023-04-03T04:30:02;0.50;99.90
48264;DHT22;34086;51.076;13.722;2023-04-03T04:31:03;0.50;99.90
48264;DHT22;34086;51.076;13.722;2023-04-03T04:32:06;0.40;99.90
48264;DHT22;34086;51.076;13.722;2023-04-03T04:33:07;0.40;99.90
48264;DHT22;34086;51.076;13.722;2023-04-03T04:34:08;0.40;99.90
48264;DHT22;34086;51.076;13.722;2023-04-03T04:35:10;0.40;99.90
48264;DHT22;34086;51.076;13.722;2023-04-03T04:36:15;0.40;99.90
48264;DHT22;34086;51.076;13.722;2023-04-03T04:37:18;0.40;99.90
48264;DHT22;34086;51.076;13.722;2023-04-03T04:38:20;0.40;99.90
48264;DHT22;34086;51.076;13.722;2023-04-03T04:39:22;0.40;99.90
48264;DHT22;34086;51.076;13.722;2023-04-03T04:40:23;0.40;99.90
48264;DHT22;34086;51.076;13.722;2023-04-03T04:41:24;0.30;99.90
48264;DHT22;34086;51.076;13.722;2023-04-03T04:42:26;0.40;99.90
48264;DHT22;34086;51.076;13.722;2023-04-03T04:43:26;0.30;99.90
48264;DHT22;34086;51.076;13.722;2023-04-03T04:44:28;0.30;99.90
48264;DHT22;34086;51.076;13.722;2023-04-03T04:45:29;0.40;99.90
48264;DHT22;34086;51.076;13.722;2023-04-03T04:46:30;0.40;99.90
48264;DHT22;34086;51.076;13.722;2023-04-03T04:47:33;0.30;99.90
48264;DHT22;34086;51.076;13.722;2023-04-03T04:48:34;0.30;99.90
48264;DHT22;34086;51.076;13.722;2023-04-03T04:49:36;0.20;99.90
48264;DHT22;34086;51.076;13.722;2023-04-03T04:50:37;0.20;99.90
48264;DHT22;34086;51.076;13.722;2023-04-03T04:51:38;0.20;99.90
48264;DHT22;34086;51.076;13.722;2023-04-03T04:52:39;0.30;99.90
48264;DHT22;34086;51.076;13.722;2023-04-03T04:53:41;0.30;99.90
48264;DHT22;34086;51.076;13.722;2023-04-03T04:54:45;0.30;99.90
48264;DHT22;34086;51.076;13.722;2023-04-03T04:55:45;0.30;99.90
48264;DHT22;34086;51.076;13.722;2023-04-03T04:56:46;0.30;99.90
48264;DHT22;34086;51.076;13.722;2023-04-03T04:57:47;0.30;99.90
48264;DHT22;34086;51.076;13.722;2023-04-03T04:58:47;0.30;99.90
48264;DHT22;34086;51.076;13.722;2023-04-03T04:59:50;0.20;99.90
48264;DHT22;34086;51.076;13.722;2023-04-03T05:00:58;0.20;99.90
48264;DHT22;34086;51.076;13.722;2023-04-03T05:01:58;0.20;99.90
48264;DHT22;34086;51.076;13.722;2023-04-03T05:03:00;0.20;99.90
48264;DHT22;34086;51.076;13.722;2023-04-03T05:04:01;0.20;99.90
48264;DHT22;34086;51.076;13.722;2023-04-03T05:05:02;0.20;99.90
48264;DHT22;34086;51.076;13.722;2023-04-03T05:06:04;0.20;99.90
48264;DHT22;34086;51.076;13.722;2023-04-03T05:07:06;0.20;99.90
48264;DHT22;34086;51.076;13.722;2023-04-03T05:08:09;0.20;99.90
48264;DHT22;34086;51.076;13.722;2023-04-03T05:09:12;0.20;99.90
48264;DHT22;34086;51.076;13.722;2023-04-03T05:10:17;0.20;99.90
48264;DHT22;34086;51.076;13.722;2023-04-03T05:11:19;0.20;99.90
48264;DHT22;34086;51.076;13.722;2023-04-03T05:12:23;0.20;99.90
48264;DHT22;34086;51.076;13.722;2023-04-03T05:13:29;0.30;99.90
48264;DHT22;34086;51.076;13.722;2023-04-03T05:14:31;0.30;99.90
48264;DHT22;34086;51.076;13.722;2023-04-03T05:15:36;0.30;99.90
48264;DHT22;34086;51.076;13.722;2023-04-03T05:16:37;0.30;99.90
48264;DHT22;34086;51.076;13.722;2023-04-03T05:17:38;0.30;99.90
48264;DHT22;34086;51.076;13.722;2023-04-03T05:18:40;0.30;99.90
48264;DHT22;34086;51.076;13.722;2023-04-03T05:19:44;0.30;99.90
48264;DHT22;34086;51.076;13.722;2023-04-03T05:20:48;0.30;99.90
48264;DHT22;34086;51.076;13.722;2023-04-03T05:21:49;0.30;99.90
48264;DHT22;34086;51.076;13.722;2023-04-03T05:22:51;0.30;99.90
48264;DHT22;34086;51.076;13.722;2023-04-03T05:23:52;0.30;99.90
48264;DHT22;34086;51.076;13.722;2023-04-03T05:24:53;0.30;99.90
48264;DHT22;34086;51.076;13.722;2023-04-03T05:25:57;0.30;99.90
48264;DHT22;34086;51.076;13.722;2023-04-03T05:27:05;0.30;99.90
48264;DHT22;34086;51.076;13.722;2023-04-03T05:28:08;0.20;99.90
48264;DHT22;34086;51.076;13.722;2023-04-03T05:29:09;0.30;99.90
48264;DHT22;34086;51.076;13.722;2023-04-03T05:30:11;0.30;99.90
48264;DHT22;34086;51.076;13.722;2023-04-03T05:31:14;0.30;99.90
48264;DHT22;34086;51.076;13.722;2023-04-03T05:32:16;0.40;99.90
48264;DHT22;34086;51.076;13.722;2023-04-03T05:33:19;0.40;99.90
48264;DHT22;34086;51.076;13.722;2023-04-03T05:34:24;0.40;99.90
48264;DHT22;34086;51.076;13.722;2023-04-03T05:35:27;0.50;99.90
48264;DHT22;34086;51.076;13.722;2023-04-03T05:36:31;0.50;99.90
48264;DHT22;34086;51.076;13.722;2023-04-03T05:37:37;0.50;99.90
48264;DHT22;34086;51.076;13.722;2023-04-03T05:38:38;0.60;99.90
48264;DHT22;34086;51.076;13.722;2023-04-03T05:39:39;0.60;99.90
48264;DHT22;34086;51.076;13.722;2023-04-03T05:40:41;0.60;99.90
48264;DHT22;34086;51.076;13.722;2023-04-03T05:41:42;0.70;99.90
48264;DHT22;34086;51.076;13.722;2023-04-03T05:42:44;0.80;99.90
48264;DHT22;34086;51.076;13.722;2023-04-03T05:43:45;0.80;99.90
48264;DHT22;34086;51.076;13.722;2023-04-03T05:44:45;0.90;99.90
48264;DHT22;34086;51.076;13.722;2023-04-03T05:45:48;0.90;99.90
48264;DHT22;34086;51.076;13.722;2023-04-03T05:46:49;0.90;99.90
48264;DHT22;34086;51.076;13.722;2023-04-03T05:47:50;0.90;99.90
48264;DHT22;34086;51.076;13.722;2023-04-03T05:48:50;1.00;99.90
48264;DHT22;34086;51.076;13.722;2023-04-03T05:49:55;1.00;99.90
48264;DHT22;34086;51.076;13.722;2023-04-03T05:50:55;1.00;99.90
48264;DHT22;34086;51.076;13.722;2023-04-03T05:52:01;1.00;99.90
48264;DHT22;34086;51.076;13.722;2023-04-03T05:53:04;1.00;99.90
48264;DHT22;34086;51.076;13.722;2023-04-03T05:54:24;1.00;99.90
48264;DHT22;34086;51.076;13.722;2023-04-03T05:55:28;1.10;99.90
48264;DHT22;34086;51.076;13.722;2023-04-03T05:56:29;1.20;99.90
48264;DHT22;34086;51.076;13.722;2023-04-03T05:57:30;1.20;99.90
48264;DHT22;34086;51.076;13.722;2023-04-03T05:58:31;1.20;99.90
48264;DHT22;34086;51.076;13.722;2023-04-03T05:59:31;1.20;99.90
48264;DHT22;34086;51.076;13.722;2023-04-03T06:00:34;1.20;99.90
48264;DHT22;34086;51.076;13.722;2023-04-03T06:01:36;1.20;99.90
48264;DHT22;34086;51.076;13.722;2023-04-03T06:02:38;1.30;99.90
48264;DHT22;34086;51.076;13.722;2023-04-03T06:03:38;1.30;99.90
48264;DHT22;34086;51.076;13.722;2023-04-03T06:04:40;1.40;99.90
48264;DHT22;34086;51.076;13.722;2023-04-03T06:05:47;1.40;99.90
48264;DHT22;34086;51.076;13.722;2023-04-03T06:07:48;1.40;99.90
48264;DHT22;34086;51.076;13.722;2023-04-03T06:08:50;1.30;99.90
48264;DHT22;34086;51.076;13.722;2023-04-03T06:09:50;1.40;99.90
48264;DHT22;34086;51.076;13.722;2023-04-03T06:10:54;1.40;99.90
48264;DHT22;34086;51.076;13.722;2023-04-03T06:11:54;1.50;99.90
48264;DHT22;34086;51.076;13.722;2023-04-03T06:12:57;1.60;99.90
48264;DHT22;34086;51.076;13.722;2023-04-03T06:13:58;1.50;99.90
48264;DHT22;34086;51.076;13.722;2023-04-03T06:14:58;1.50;99.90
48264;DHT22;34086;51.076;13.722;2023-04-03T06:15:59;1.60;99.90
48264;DHT22;34086;51.076;13.722;2023-04-03T06:17:00;1.70;99.90
48264;DHT22;34086;51.076;13.722;2023-04-03T06:18:01;1.80;99.90
48264;DHT22;34086;51.076;13.722;2023-04-03T06:19:02;1.90;99.90
48264;DHT22;34086;51.076;13.722;2023-04-03T06:20:05;2.00;99.90
48264;DHT22;34086;51.076;13.722;2023-04-03T06:21:06;2.00;99.90
48264;DHT22;34086;51.076;13.722;2023-04-03T06:22:09;2.00;99.90
48264;DHT22;34086;51.076;13.722;2023-04-03T06:23:09;2.00;99.90
48264;DHT22;34086;51.076;13.722;2023-04-03T06:24:15;1.90;99.90
48264;DHT22;34086;51.076;13.722;2023-04-03T06:25:21;2.00;99.90
48264;DHT22;34086;51.076;13.722;2023-04-03T06:26:22;2.00;99.90
48264;DHT22;34086;51.076;13.722;2023-04-03T06:27:22;2.10;99.90
48264;DHT22;34086;51.076;13.722;2023-04-03T06:28:23;2.10;99.90
48264;DHT22;34086;51.076;13.722;2023-04-03T06:29:24;2.10;99.90
48264;DHT22;34086;51.076;13.722;2023-04-03T06:30:25;2.20;99.90
48264;DHT22;34086;51.076;13.722;2023-04-03T06:31:26;2.20;99.90
48264;DHT22;34086;51.076;13.722;2023-04-03T06:32:26;2.20;99.90
48264;DHT22;34086;51.076;13.722;2023-04-03T06:33:27;2.30;99.90